DAAG/ALG METAR and TAF weather

Enter ICAO airport designator
Station Type Date Time Source
DAAG METAR 2021/03/08 02:00 UTC NOAA

DAAG 080200Z 00000KT 8000 FEW020 FEW026CB BKN073 13/12 Q1013


Station Type Date Time Source
DAAG Decoded METAR 2021/03/08 02:00 UTC NOAA

Dar-El-Beida, Algeria (DAAG) 36-43N 003-15E 25M
Mar 07, 2021 - 09:00 PM EST / 2021.03.08 0200 UTC
Wind: Calm:0
Visibility: 4 mile(s):0
Sky conditions: mostly cloudy
Weather: Cumulonimbus clouds observed
Temperature: 55 F (13 C)
Dew Point: 53 F (12 C)
Relative Humidity: 93%
Pressure (altimeter): 29.91 in. Hg (1013 hPa)
ob: DAAG 080200Z 00000KT 8000 FEW020 FEW026CB BKN073 13/12 Q1013
cycle: 2

Station Type Date Time Source
DAAG TAF 2021/03/07 18:33 UTC NOAA

TAF TAF DAAG 071700Z 0718/0818 04008KT 9999 FEW023 SCT080
TEMPO 0718/0723 FEW026CB PROB40
TEMPO 0718/0724 -TSRA FEW030CB

Example: see airport list